Weather at Vincenzo Florio Airport Trapani-Birgi

Public forecast

Using degrees Celsius for public forecast. Weather courtesy of forecast.io.

Current aviation weather report (METAR) for Vincenzo Florio Airport Trapani-Birgi

Retrieved 2020/11/25 09:55 UTC (53 minutes ago):

LICT 250955Z VRB03KT 9999 FEW022 19/10 Q1021 RMK SCT SCT200 VIS MIN 9999 WIND THR13 14002KT BLU

Aviation forecast (TAF) for Vincenzo Florio Airport Trapani-Birgi

Forecast is more than 12 hours old.

Retrieved 2019/01/11 09:24 UTC (2 years ago):

TAF TAF LICT 110800Z 1109/1121 33012KT 9999 SCT025